Terminal Aerodrome Forecast
Issued by NWS Cleveland, OH

Home | Current Version | Previous Version | Graphics & Text | Print | Product List | Glossary Off
Versions: 1 2 3 4 5 6 7 8 9 10 11 12 13 14 15 16 17 18 19 20 21 22 23

000
FTUS41 KCLE 201400 AAA
TAFMFD
TAF AMD
KMFD 201407Z 2014/2112 21006KT P6SM SCT010
      TEMPO 2014/2016 BKN010
     FM201600 24010KT P6SM BKN035
     FM211000 VRB04KT 4SM BR FEW012 SCT100=

USA.gov is the U.S. government's official web portal to all federal, state and local government web resources and services.